Time;durP1;ratioP1;P1;durP2;ratioP2;P2;SDS_P1;SDS_P2;PMS_P1;PMS_P2;Temp;Humidity;BMP_temperature;BMP_pressure;BME280_temperature;BME280_humidity;BME280_pressure;Samples;Min_cycle;Max_cycle;Signal;HPM_P1;HPM_P2
2024/02/10 00:01:45;;;;;;;;;0.00;0.00;;;;;14.75;100.00;98205.16;5055893;28;45327;-80
2024/02/10 00:04:13;;;;;;;;;0.00;0.00;;;;;14.75;100.00;98203.34;5055747;28;46101;-80
2024/02/10 00:06:39;;;;;;;;;0.00;0.00;;;;;14.85;100.00;98201.56;5055849;28;45430;-80
2024/02/10 00:09:06;;;;;;;;;0.00;0.00;;;;;14.85;100.00;98204.19;5055953;28;45449;-80
2024/02/10 00:11:32;;;;;;;;;0.00;0.00;;;;;14.89;100.00;98199.50;5054615;28;45477;-80
2024/02/10 00:13:57;;;;;;;;;0.00;0.00;;;;;14.97;100.00;98196.22;5055096;28;45488;-80
2024/02/10 00:16:24;;;;;;;;;0.00;0.00;;;;;15.00;100.00;98194.16;5055412;28;57676;-80
2024/02/10 00:18:51;;;;;;;;;0.00;0.00;;;;;15.04;100.00;98177.22;5056029;28;45311;-80
2024/02/10 00:21:20;;;;;;;;;2.25;2.25;;;;;15.06;100.00;98191.03;5055640;28;45381;-80
2024/02/10 00:23:47;;;;;;;;;0.00;0.00;;;;;15.07;100.00;98168.25;5055336;28;45367;-80
2024/02/10 00:26:14;;;;;;;;;0.00;0.00;;;;;15.09;100.00;98177.63;5055451;28;45318;-80
2024/02/10 00:28:39;;;;;;;;;0.00;0.00;;;;;15.10;100.00;98173.25;5051831;28;45196;-80
2024/02/10 00:31:05;;;;;;;;;0.00;0.00;;;;;15.10;100.00;98160.97;5034507;28;68587;-80
2024/02/10 00:33:30;;;;;;;;;0.00;0.00;;;;;15.13;100.00;98172.13;5034761;28;75476;-80
2024/02/10 00:35:55;;;;;;;;;0.00;0.00;;;;;15.13;100.00;98159.03;5038704;28;45404;-81
2024/02/10 00:38:21;;;;;;;;;0.00;0.00;;;;;15.11;100.00;98159.16;5037923;28;69178;-80
2024/02/10 00:40:48;;;;;;;;;0.00;0.00;;;;;15.17;100.00;98160.41;5038542;28;45554;-80
2024/02/10 00:43:13;;;;;;;;;0.00;0.00;;;;;15.14;100.00;98164.13;5038155;28;46125;-80
2024/02/10 00:45:40;;;;;;;;;0.00;0.00;;;;;15.09;100.00;98150.63;5037840;28;68708;-80
2024/02/10 00:48:06;;;;;;;;;0.00;0.00;;;;;15.05;100.00;98159.72;5038734;28;45323;-80
2024/02/10 00:50:31;;;;;;;;;0.00;0.00;;;;;14.98;100.00;98150.75;5054255;28;45420;-80
2024/02/10 00:52:57;;;;;;;;;0.00;0.00;;;;;14.91;100.00;98139.97;5058872;28;45401;-80
2024/02/10 00:55:25;;;;;;;;;0.00;0.00;;;;;14.90;100.00;98151.41;5058770;28;45397;-80
2024/02/10 00:57:51;;;;;;;;;0.00;0.00;;;;;14.81;100.00;98158.28;5058472;28;45374;-81
2024/02/10 01:00:17;;;;;;;;;0.00;0.00;;;;;14.77;100.00;98163.94;5058760;28;45181;-80
2024/02/10 01:02:46;;;;;;;;;0.00;0.00;;;;;14.70;100.00;98161.00;5057302;28;45416;-80
2024/02/10 01:05:12;;;;;;;;;0.00;0.00;;;;;14.66;100.00;98159.63;5058520;28;45354;-81
2024/02/10 01:07:39;;;;;;;;;0.00;0.00;;;;;14.61;100.00;98152.16;5058803;28;45303;-80
2024/02/10 01:10:07;;;;;;;;;0.00;0.00;;;;;14.56;100.00;98167.44;5058897;28;45338;-81
2024/02/10 01:12:33;;;;;;;;;0.00;0.00;;;;;14.59;100.00;98168.97;5058369;28;45363;-80
2024/02/10 01:14:58;;;;;;;;;0.00;0.00;;;;;14.64;100.00;98180.69;5058529;28;45299;-81
2024/02/10 01:17:26;;;;;;;;;0.00;0.00;;;;;14.68;100.00;98178.66;5057808;28;60272;-81
2024/02/10 01:19:51;;;;;;;;;0.00;0.00;;;;;14.73;100.00;98179.09;5058649;28;45539;-81
2024/02/10 01:22:22;;;;;;;;;0.00;0.00;;;;;14.78;100.00;98182.09;5057196;28;45465;-80
2024/02/10 01:24:53;;;;;;;;;0.00;0.00;;;;;14.81;100.00;98173.19;5058572;28;45233;-80
2024/02/10 01:27:44;;;;;;;;;0.00;0.00;;;;;14.86;100.00;98173.59;5058100;28;45294;-80
2024/02/10 01:30:10;;;;;;;;;0.00;0.00;;;;;14.90;100.00;98175.00;5042411;28;45526;-80
2024/02/10 01:32:36;;;;;;;;;0.00;0.00;;;;;14.89;100.00;98183.78;5038028;28;46071;-80
2024/02/10 01:35:03;;;;;;;;;0.00;0.00;;;;;14.89;100.00;98189.03;5038202;28;45394;-80
2024/02/10 01:37:29;;;;;;;;;0.00;0.00;;;;;14.89;100.00;98187.25;5038126;28;45395;-80
2024/02/10 01:39:55;;;;;;;;;0.00;0.00;;;;;14.89;100.00;98183.78;5037709;28;45348;-80
2024/02/10 01:42:33;;;;;;;;;0.00;0.00;;;;;14.91;100.00;98192.34;5037832;28;45965;-80
2024/02/10 01:44:58;;;;;;;;;0.00;0.00;;;;;14.89;100.00;98182.03;5037441;28;45291;-80
2024/02/10 01:47:24;;;;;;;;;0.00;0.00;;;;;14.90;100.00;98185.47;5036820;28;69604;-80
2024/02/10 01:49:49;;;;;;;;;0.00;0.00;;;;;14.93;100.00;98179.13;5047684;28;45473;-81
2024/02/10 01:52:15;;;;;;;;;0.00;0.00;;;;;14.92;100.00;98183.53;5057698;28;45495;-80
2024/02/10 01:54:43;;;;;;;;;0.00;0.00;;;;;14.94;100.00;98175.56;5056572;28;72909;-81
2024/02/10 01:57:10;;;;;;;;;0.00;0.00;;;;;15.05;100.00;98172.81;5057999;28;45280;-80
2024/02/10 01:59:36;;;;;;;;;0.00;0.00;;;;;15.09;100.00;98201.22;5055581;28;70508;-80
2024/02/10 02:02:05;;;;;;;;;0.00;0.00;;;;;15.07;100.00;98199.69;5057529;28;45570;-80
2024/02/10 02:04:35;;;;;;;;;0.00;0.00;;;;;15.03;100.00;98191.28;5057511;28;45307;-80
2024/02/10 02:07:02;;;;;;;;;0.00;0.00;;;;;14.98;100.00;98195.28;5057723;28;45346;-80
2024/02/10 02:09:28;;;;;;;;;0.00;0.00;;;;;15.01;100.00;98192.38;5055955;28;45342;-80
2024/02/10 02:11:53;;;;;;;;;0.00;0.00;;;;;15.07;100.00;98202.31;5038285;28;73254;-80
2024/02/10 02:14:18;;;;;;;;;0.00;0.00;;;;;15.02;100.00;98230.72;5056685;28;59371;-81
2024/02/10 02:16:48;;;;;;;;;0.00;0.00;;;;;15.00;100.00;98222.16;5056826;28;58145;-80
2024/02/10 02:19:14;;;;;;;;;0.00;0.00;;;;;14.94;100.00;98220.91;5057461;28;45360;-80
2024/02/10 02:21:41;;;;;;;;;0.00;0.00;;;;;14.90;100.00;98219.50;5057301;28;45598;-80
2024/02/10 02:24:06;;;;;;;;;0.00;0.00;;;;;14.93;100.00;98210.56;5055484;28;45434;-80
2024/02/10 02:26:32;;;;;;;;;0.00;0.00;;;;;14.95;100.00;98206.84;5056416;28;69162;-81
2024/02/10 02:28:57;;;;;;;;;0.00;0.00;;;;;14.96;100.00;98205.06;5050473;28;66274;-80
2024/02/10 02:31:22;;;;;;;;;0.00;0.00;;;;;14.90;100.00;98199.38;5036945;28;45375;-80
2024/02/10 02:33:48;;;;;;;;;0.00;0.00;;;;;14.90;100.00;98207.25;5035982;28;71817;-80
2024/02/10 02:36:17;;;;;;;;;0.00;0.00;;;;;14.88;100.00;98196.06;5036917;28;45411;-80
2024/02/10 02:38:43;;;;;;;;;0.00;0.00;;;;;14.86;100.00;98197.19;5036570;28;45453;-80
2024/02/10 02:41:09;;;;;;;;;0.00;0.00;;;;;14.73;100.00;98194.78;5035538;28;45403;-80
2024/02/10 02:43:35;;;;;;;;;0.00;0.00;;;;;14.63;100.00;98199.16;5036777;28;45378;-81
2024/02/10 02:46:06;;;;;;;;;7.50;7.50;;;;;14.62;100.00;98187.03;5036821;28;45315;-80
2024/02/10 02:48:32;;;;;;;;;0.00;0.00;;;;;14.57;100.00;98184.81;5036687;28;45404;-80
2024/02/10 02:50:57;;;;;;;;;0.00;0.00;;;;;14.57;100.00;98174.34;5055631;28;46209;-80
2024/02/10 02:53:25;;;;;;;;;0.00;0.00;;;;;14.59;100.00;98176.81;5057176;28;45433;-80
2024/02/10 02:55:51;;;;;;;;;0.00;0.00;;;;;14.57;100.00;98184.81;5057343;28;45461;-81
2024/02/10 02:58:18;;;;;;;;;0.00;0.00;;;;;14.52;100.00;98179.09;5057004;28;45376;-80
2024/02/10 03:00:45;;;;;;;;;0.00;0.00;;;;;14.56;100.00;98166.56;5057118;28;46363;-80
2024/02/10 03:03:10;;;;;;;;;0.00;0.00;;;;;14.57;100.00;98163.88;5056953;28;45422;-80
2024/02/10 03:05:36;;;;;;;;;0.00;0.00;;;;;14.57;100.00;98170.88;5056371;28;59699;-80
2024/02/10 03:08:02;;;;;;;;;0.00;0.00;;;;;14.56;100.00;98180.50;5054269;28;70164;-80
2024/02/10 03:10:28;;;;;;;;;0.00;0.00;;;;;14.54;100.00;98171.94;5057069;28;46537;-80
2024/02/10 03:12:54;;;;;;;;;0.00;0.00;;;;;14.55;100.00;98163.13;5056723;28;45335;-80
2024/02/10 03:15:19;;;;;;;;;0.00;0.00;;;;;14.55;100.00;98162.31;5056781;28;45283;-80
2024/02/10 03:17:46;;;;;;;;;0.00;0.00;;;;;14.53;100.00;98155.41;5057038;28;45283;-81
2024/02/10 03:20:12;;;;;;;;;0.00;0.00;;;;;14.44;100.00;98153.59;5056806;28;45424;-81
2024/02/10 03:22:37;;;;;;;;;0.00;0.00;;;;;14.41;100.00;98146.03;5055879;28;45390;-81
2024/02/10 03:25:04;;;;;;;;;0.00;0.00;;;;;14.41;100.00;98147.78;5054816;28;63007;-80
2024/02/10 03:27:29;;;;;;;;;0.00;0.00;;;;;14.35;100.00;98143.09;5055120;28;45433;-81
2024/02/10 03:29:54;;;;;;;;;0.00;0.00;;;;;14.32;100.00;98139.78;5042138;28;64065;-80
2024/02/10 03:32:20;;;;;;;;;0.00;0.00;;;;;14.33;100.00;98141.41;5034956;28;72041;-80
2024/02/10 03:34:45;;;;;;;;;0.00;0.00;;;;;14.31;100.00;98145.97;5035366;28;68038;-80
2024/02/10 03:37:12;;;;;;;;;0.00;0.00;;;;;14.33;100.00;98144.03;5034994;28;68406;-80
2024/02/10 03:39:37;;;;;;;;;0.00;0.00;;;;;14.32;100.00;98142.41;5035965;28;45339;-80
2024/02/10 03:42:07;;;;;;;;;0.00;0.00;;;;;14.37;100.00;98128.91;5036081;28;45552;-80
2024/02/10 03:44:32;;;;;;;;;0.00;0.00;;;;;14.36;100.00;98142.13;5036257;28;45468;-81
2024/02/10 03:47:01;;;;;;;;;0.00;0.00;;;;;14.32;100.00;98139.78;5035312;28;70432;-80
2024/02/10 03:49:28;;;;;;;;;0.00;0.00;;;;;14.28;100.00;98137.53;5042410;28;46223;-81
2024/02/10 03:51:53;;;;;;;;;0.00;0.00;;;;;14.26;100.00;98132.47;5055517;28;45962;-80
2024/02/10 03:54:19;;;;;;;;;0.00;0.00;;;;;14.24;100.00;98131.75;5056076;28;45260;-80
2024/02/10 03:56:46;;;;;;;;;0.00;0.00;;;;;14.23;100.00;98129.28;5055280;28;70299;-80
2024/02/10 03:59:15;;;;;;;;;0.00;0.00;;;;;14.19;100.00;98128.72;5055672;28;45285;-80
2024/02/10 04:01:47;;;;;;;;;0.00;0.00;;;;;14.17;100.00;98116.69;5056091;28;45456;-80
2024/02/10 04:04:13;;;;;;;;;0.00;0.00;;;;;14.16;100.00;98117.69;5055990;28;45439;-80
2024/02/10 04:06:39;;;;;;;;;0.00;0.00;;;;;14.15;100.00;98114.22;5055449;28;45382;-80
2024/02/10 04:09:05;;;;;;;;;0.00;0.00;;;;;14.12;100.00;98123.16;5057106;28;45519;-80
2024/02/10 04:11:31;;;;;;;;;0.00;0.00;;;;;14.09;100.00;98123.41;5059421;28;45296;-80
2024/02/10 04:13:58;;;;;;;;;0.00;0.00;;;;;14.08;100.00;98118.34;5059287;28;45393;-80
2024/02/10 04:16:24;;;;;;;;;0.00;0.00;;;;;14.09;100.00;98119.97;5059454;28;45207;-80
2024/02/10 04:18:51;;;;;;;;;0.00;0.00;;;;;14.07;100.00;98120.09;5059215;28;45372;-80
2024/02/10 04:21:16;;;;;;;;;0.00;0.00;;;;;14.09;100.00;98123.41;5058635;28;45303;-80
2024/02/10 04:23:42;;;;;;;;;0.00;0.00;;;;;14.02;100.00;98111.84;5058464;28;61054;-80
2024/02/10 04:26:09;;;;;;;;;0.00;0.00;;;;;14.07;100.00;98116.66;5059156;28;45345;-80
2024/02/10 04:28:34;;;;;;;;;0.00;0.00;;;;;14.05;100.00;98118.59;5055800;28;66335;-81
2024/02/10 04:31:00;;;;;;;;;0.00;0.00;;;;;14.07;100.00;98112.25;5038741;28;45454;-80
2024/02/10 04:33:25;;;;;;;;;0.00;0.00;;;;;14.05;100.00;98113.34;5038022;28;67226;-81
2024/02/10 04:35:50;;;;;;;;;0.00;0.00;;;;;14.07;100.00;98106.19;5037754;28;45611;-80
2024/02/10 04:38:16;;;;;;;;;0.00;0.00;;;;;14.07;100.00;98116.66;5038626;28;68045;-80
2024/02/10 04:40:41;;;;;;;;;0.00;0.00;;;;;14.09;100.00;98119.97;5039000;28;45404;-80
2024/02/10 04:43:07;;;;;;;;;0.00;0.00;;;;;14.09;100.00;98119.97;5037951;28;45423;-81
2024/02/10 04:45:34;;;;;;;;;0.00;0.00;;;;;14.07;100.00;98114.88;5038116;28;63172;-80
2024/02/10 04:48:04;;;;;;;;;0.00;0.00;;;;;14.11;100.00;98118.06;5038495;28;46354;-81
2024/02/10 04:50:31;;;;;;;;;0.00;0.00;;;;;14.21;100.00;98118.09;5054073;28;45470;-80
2024/02/10 04:52:57;;;;;;;;;0.00;0.00;;;;;14.25;100.00;98122.13;5058938;28;45500;-80
2024/02/10 04:55:23;;;;;;;;;0.00;0.00;;;;;14.29;100.00;98126.13;5057700;28;45370;-80
2024/02/10 04:57:50;;;;;;;;;0.00;0.00;;;;;14.26;100.00;98116.75;5057603;28;46575;-80
2024/02/10 05:00:16;;;;;;;;;0.00;0.00;;;;;14.26;100.00;98123.75;5058743;28;47706;-80
2024/02/10 05:02:45;;;;;;;;;0.00;0.00;;;;;14.24;100.00;98123.88;5058343;28;45233;-80
2024/02/10 05:05:11;;;;;;;;;0.00;0.00;;;;;14.22;100.00;98130.22;5058826;28;45478;-81
2024/02/10 05:07:43;;;;;;;;;0.00;0.00;;;;;14.22;100.00;98125.81;5058485;28;45425;-80
2024/02/10 05:10:16;;;;;;;;;0.00;0.00;;;;;14.21;100.00;98126.78;5057313;28;45254;-80
2024/02/10 05:12:46;;;;;;;;;0.00;0.00;;;;;14.24;100.00;98125.69;5057169;28;45392;-80
2024/02/10 05:15:19;;;;;;;;;0.00;0.00;;;;;14.24;100.00;98123.06;5058334;28;45430;-80
2024/02/10 05:17:51;;;;;;;;;0.00;0.00;;;;;14.22;100.00;98115.34;5058057;28;46064;-80
2024/02/10 05:20:21;;;;;;;;;0.00;0.00;;;;;14.18;100.00;98115.75;5055953;28;45284;-80
2024/02/10 05:22:47;;;;;;;;;0.00;0.00;;;;;14.16;100.00;98122.91;5057971;28;45406;-80
2024/02/10 05:25:13;;;;;;;;;0.00;0.00;;;;;14.14;100.00;98120.41;5058513;28;45578;-80
2024/02/10 05:27:39;;;;;;;;;0.00;0.00;;;;;14.10;100.00;98122.47;5057090;28;45369;-80
2024/02/10 05:30:05;;;;;;;;;0.00;0.00;;;;;14.08;100.00;98121.78;5042082;28;45419;-80
2024/02/10 05:32:30;;;;;;;;;0.00;0.00;;;;;14.03;100.00;98117.91;5036581;28;45474;-80
2024/02/10 05:34:56;;;;;;;;;0.00;0.00;;;;;14.04;100.00;98120.38;5037057;28;45465;-80
2024/02/10 05:37:21;;;;;;;;;0.00;0.00;;;;;14.04;100.00;98124.75;5035954;28;75812;-80
2024/02/10 05:39:46;;;;;;;;;0.00;0.00;;;;;14.01;100.00;98111.97;5036091;28;59654;-80
2024/02/10 05:42:13;;;;;;;;;0.00;0.00;;;;;13.99;100.00;98119.13;5037956;28;45413;-80
2024/02/10 05:44:40;;;;;;;;;0.00;0.00;;;;;14.02;100.00;98117.06;5037822;28;45908;-80
2024/02/10 05:47:06;;;;;;;;;0.00;0.00;;;;;14.05;100.00;98121.22;5037579;28;46171;-80
2024/02/10 05:49:34;;;;;;;;;0.00;0.00;;;;;14.03;100.00;98116.09;5044910;28;45353;-80
2024/02/10 05:51:59;;;;;;;;;0.00;0.00;;;;;14.05;100.00;98119.41;5058081;28;45224;-80
2024/02/10 05:54:29;;;;;;;;;0.00;0.00;;;;;14.07;100.00;98116.66;5056784;28;45294;-80
2024/02/10 05:56:54;;;;;;;;;0.00;0.00;;;;;14.06;100.00;98120.22;5057816;28;46289;-80
2024/02/10 05:59:19;;;;;;;;;0.00;0.00;;;;;14.05;100.00;98129.06;5057658;28;45618;-81
2024/02/10 06:01:47;;;;;;;;;0.00;0.00;;;;;14.06;100.00;98125.47;5057650;28;45353;-80
2024/02/10 06:04:12;;;;;;;;;0.00;0.00;;;;;14.04;100.00;98125.63;5057571;28;45483;-80
2024/02/10 06:06:40;;;;;;;;;0.00;0.00;;;;;14.03;100.00;98123.94;5057435;28;46309;-81
2024/02/10 06:09:07;;;;;;;;;0.00;0.00;;;;;14.03;100.00;98117.91;5057598;28;45387;-80
2024/02/10 06:11:33;;;;;;;;;0.00;0.00;;;;;14.01;100.00;98122.44;5057448;28;45413;-80
2024/02/10 06:13:59;;;;;;;;;0.00;0.00;;;;;14.00;100.00;98120.75;5057381;28;45287;-80
2024/02/10 06:16:24;;;;;;;;;0.00;0.00;;;;;13.99;100.00;98122.56;5055791;28;46202;-80
2024/02/10 06:18:50;;;;;;;;;0.00;0.00;;;;;14.01;100.00;98127.66;5057931;28;45501;-80
2024/02/10 06:21:15;;;;;;;;;0.00;0.00;;;;;13.98;100.00;98118.25;5057673;28;45396;-81
2024/02/10 06:23:42;;;;;;;;;0.00;0.00;;;;;13.97;100.00;98121.00;5057567;28;45600;-81
2024/02/10 06:26:10;;;;;;;;;0.00;0.00;;;;;14.00;100.00;98123.38;5056215;28;46216;-80
2024/02/10 06:28:36;;;;;;;;;0.00;0.00;;;;;13.94;100.00;98124.72;5054661;28;45213;-80
2024/02/10 06:31:01;;;;;;;;;0.00;0.00;;;;;13.95;100.00;98129.00;5036944;28;45468;-80
2024/02/10 06:33:28;;;;;;;;;0.00;0.00;;;;;13.90;100.00;98124.16;5037198;28;45367;-80
2024/02/10 06:35:58;;;;;;;;;0.00;0.00;;;;;13.90;100.00;98112.88;5036940;28;45479;-80
2024/02/10 06:38:32;;;;;;;;;0.00;0.00;;;;;13.88;100.00;98120.03;5035932;28;45549;-80
2024/02/10 06:41:01;;;;;;;;;0.00;0.00;;;;;13.92;100.00;98116.19;5037023;28;45437;-80
2024/02/10 06:43:26;;;;;;;;;0.00;0.00;;;;;13.91;100.00;98117.13;5037336;28;45270;-80
2024/02/10 06:45:51;;;;;;;;;0.00;0.00;;;;;13.87;100.00;98120.97;5035734;28;73106;-80
2024/02/10 06:48:18;;;;;;;;;0.00;0.00;;;;;13.82;100.00;98130.97;5035843;28;71710;-81
2024/02/10 06:50:44;;;;;;;;;0.00;0.00;;;;;13.82;100.00;98123.13;5054021;28;45334;-80
2024/02/10 06:53:09;;;;;;;;;0.00;0.00;;;;;13.79;100.00;98128.63;5057235;28;45350;-81
2024/02/10 06:55:36;;;;;;;;;0.00;0.00;;;;;13.79;100.00;98126.84;5056996;28;46359;-80
2024/02/10 06:58:02;;;;;;;;;0.00;0.00;;;;;13.83;100.00;98122.19;5056842;28;45442;-80
2024/02/10 07:00:30;;;;;;;;;0.00;0.00;;;;;13.84;100.00;98126.47;5038379;28;45491;-80
2024/02/10 07:02:56;;;;;;;;;0.00;0.00;;;;;13.83;100.00;98123.00;5056795;28;45319;-80
2024/02/10 07:05:23;;;;;;;;;0.00;0.00;;;;;13.85;100.00;98115.03;5056544;28;46262;-80
2024/02/10 07:07:48;;;;;;;;;0.00;0.00;;;;;13.88;100.00;98109.56;5056916;28;45351;-80
2024/02/10 07:10:22;;;;;;;;;0.00;0.00;;;;;13.90;100.00;98113.69;5056752;28;45256;-80
2024/02/10 07:12:49;;;;;;;;;0.00;0.00;;;;;13.90;100.00;98123.31;5055563;28;45246;-80
2024/02/10 07:15:18;;;;;;;;;0.00;0.00;;;;;13.91;100.00;98123.19;5056240;28;45489;-80
2024/02/10 07:17:46;;;;;;;;;0.00;0.00;;;;;13.92;100.00;98126.63;5056540;28;45401;-80
2024/02/10 07:20:20;;;;;;;;;0.00;0.00;;;;;13.95;100.00;98121.16;5056528;28;45295;-80
2024/02/10 07:22:49;;;;;;;;;0.00;0.00;;;;;13.97;100.00;98123.63;5056230;28;45492;-80
2024/02/10 07:25:17;;;;;;;;;0.00;0.00;;;;;13.99;100.00;98121.72;5056350;28;45443;-80
2024/02/10 07:27:46;;;;;;;;;0.00;0.00;;;;;14.01;100.00;98119.81;5055846;28;45446;-80
2024/02/10 07:30:12;;;;;;;;;0.00;0.00;;;;;14.00;100.00;98118.13;5040351;28;45396;-80
2024/02/10 07:32:37;;;;;;;;;0.00;0.00;;;;;14.19;100.00;98113.00;5036209;28;45420;-80
2024/02/10 07:35:04;;;;;;;;;0.00;0.00;;;;;14.02;100.00;98111.00;5035113;28;75475;-80
2024/02/10 07:37:29;;;;;;;;;0.00;0.00;;;;;14.01;100.00;98114.59;5036092;28;45404;-80
2024/02/10 07:39:54;;;;;;;;;0.00;0.00;;;;;14.03;100.00;98112.66;5035155;28;69215;-81
2024/02/10 07:42:20;;;;;;;;;0.00;0.00;;;;;14.04;100.00;98116.91;5034688;28;68167;-80
2024/02/10 07:44:50;;;;;;;;;0.00;0.00;;;;;14.03;100.00;98115.28;5034998;28;46102;-80
2024/02/10 07:47:16;;;;;;;;;0.00;0.00;;;;;14.06;100.00;98117.63;5034901;28;45291;-80
2024/02/10 07:49:44;;;;;;;;;0.00;0.00;;;;;14.07;100.00;98125.34;5044689;28;45394;-80
2024/02/10 07:52:12;;;;;;;;;0.00;0.00;;;;;14.13;100.00;98126.59;5056096;28;45489;-80
2024/02/10 07:54:37;;;;;;;;;0.00;0.00;;;;;14.09;100.00;98126.03;5054770;28;46318;-80
2024/02/10 07:57:03;;;;;;;;;0.00;0.00;;;;;14.14;100.00;98133.50;5055766;28;45547;-80
2024/02/10 07:59:29;;;;;;;;;0.00;0.00;;;;;14.15;100.00;98132.53;5056195;28;45501;-80
2024/02/10 08:01:54;;;;;;;;;0.00;0.00;;;;;14.20;100.00;98137.38;5056394;28;45326;-80
2024/02/10 08:04:19;;;;;;;;;0.00;0.00;;;;;14.23;100.00;98132.72;5055176;28;75387;-80
2024/02/10 08:06:45;;;;;;;;;0.00;0.00;;;;;14.26;100.00;98129.00;5055180;28;72985;-80
2024/02/10 08:09:11;;;;;;;;;0.00;0.00;;;;;14.29;100.00;98128.75;5056198;28;45273;-80
2024/02/10 08:11:39;;;;;;;;;0.00;0.00;;;;;14.32;100.00;98131.09;5056171;28;45535;-80
2024/02/10 08:14:05;;;;;;;;;0.00;0.00;;;;;14.33;100.00;98125.72;5055972;28;45453;-80
2024/02/10 08:16:30;;;;;;;;;0.00;0.00;;;;;14.41;100.00;98124.22;5055846;28;45276;-81
2024/02/10 08:18:59;;;;;;;;;0.00;0.00;;;;;14.46;100.00;98124.66;5055255;28;64845;-81
2024/02/10 08:21:26;;;;;;;;;0.00;0.00;;;;;14.50;100.00;98133.91;5055972;28;45268;-80
2024/02/10 08:23:52;;;;;;;;;0.00;0.00;;;;;14.50;100.00;98139.13;5055576;28;45208;-81
2024/02/10 08:26:21;;;;;;;;;0.00;0.00;;;;;14.59;100.00;98140.19;5054356;28;45514;-81
2024/02/10 08:28:51;;;;;;;;;0.00;0.00;;;;;14.61;100.00;98140.88;5051682;28;45264;-80
2024/02/10 08:31:18;;;;;;;;;0.00;0.00;;;;;14.67;100.00;98143.78;5034285;28;45557;-80
2024/02/10 08:33:52;;;;;;;;;0.00;0.00;;;;;14.73;100.00;98144.19;5035445;28;45639;-80
2024/02/10 08:36:17;;;;;;;;;0.00;0.00;;;;;14.77;100.00;98148.22;5035700;28;45298;-81
2024/02/10 08:38:43;;;;;;;;;0.00;0.00;;;;;14.81;100.00;98155.66;5035605;28;45292;-80
2024/02/10 08:41:09;;;;;;;;;0.00;0.00;;;;;14.89;100.00;98149.75;5035166;28;45300;-80
2024/02/10 08:43:42;;;;;;;;;0.00;0.00;;;;;14.94;100.00;98151.97;5035284;28;45495;-80
2024/02/10 08:46:07;;;;;;;;;0.00;0.00;;;;;14.95;100.00;98146.63;5035390;28;45322;-81
2024/02/10 08:48:33;;;;;;;;;0.00;0.00;;;;;14.99;100.00;98149.75;5035389;28;45291;-80
2024/02/10 08:50:58;;;;;;;;;0.00;0.00;;;;;15.02;100.00;98157.34;5054428;28;45572;-80
2024/02/10 08:53:23;;;;;;;;;0.00;0.00;;;;;15.04;100.00;98148.41;5055056;28;46285;-80
2024/02/10 08:55:50;;;;;;;;;0.00;0.00;;;;;15.07;100.00;98155.16;5057166;28;45364;-79
2024/02/10 08:58:16;;;;;;;;;0.00;0.00;;;;;15.11;100.00;98156.53;5057526;28;45436;-80
2024/02/10 09:00:45;;;;;;;;;0.00;0.00;;;;;15.16;100.00;98156.16;5058525;28;45453;-79
2024/02/10 09:03:11;;;;;;;;;0.00;0.00;;;;;15.20;100.00;98157.53;5057233;28;46728;-79
2024/02/10 09:05:36;;;;;;;;;0.00;0.00;;;;;15.20;100.00;98152.28;5058433;28;45311;-79
2024/02/10 09:08:02;;;;;;;;;0.00;0.00;;;;;15.20;100.00;98157.53;5058527;28;45500;-79
2024/02/10 09:10:27;;;;;;;;;0.00;0.00;;;;;15.21;100.00;98156.53;5057948;28;50019;-80
2024/02/10 09:12:52;;;;;;;;;0.00;0.00;;;;;15.21;100.00;98167.88;5057696;28;61128;-79
2024/02/10 09:15:18;;;;;;;;;0.00;0.00;;;;;15.17;100.00;98163.03;5058380;28;45390;-79
2024/02/10 09:17:43;;;;;;;;;0.00;0.00;;;;;15.23;100.00;98165.09;5058454;28;45409;-79
2024/02/10 09:20:11;;;;;;;;;0.00;0.00;;;;;15.26;100.00;98168.28;5058158;28;45324;-79
2024/02/10 09:22:36;;;;;;;;;0.00;0.00;;;;;15.23;100.00;98165.09;5058127;28;46470;-79
2024/02/10 09:25:02;;;;;;;;;0.00;0.00;;;;;15.23;100.00;98162.47;5056710;28;72881;-79
2024/02/10 09:27:27;;;;;;;;;0.00;0.00;;;;;15.24;100.00;98164.13;5058152;28;45412;-79
2024/02/10 09:29:54;;;;;;;;;0.00;0.00;;;;;15.27;100.00;98162.06;5043732;28;68516;-79
2024/02/10 09:32:19;;;;;;;;;0.00;0.00;;;;;15.28;100.00;98165.50;5037688;28;45371;-79
2024/02/10 09:34:46;;;;;;;;;0.00;0.00;;;;;15.33;100.00;98168.56;5037792;28;45279;-80
2024/02/10 09:37:12;;;;;;;;;0.00;0.00;;;;;15.40;100.00;98171.47;5036722;28;45461;-79
2024/02/10 09:39:37;;;;;;;;;0.00;0.00;;;;;15.45;100.00;98177.09;5036452;28;45371;-79
2024/02/10 09:42:08;;;;;;;;;0.00;0.00;;;;;15.50;100.00;98167.03;5037429;28;46273;-79
2024/02/10 09:44:34;;;;;;;;;0.00;0.00;;;;;15.65;100.00;98165.66;5037173;28;45313;-79
2024/02/10 09:47:01;;;;;;;;;0.00;0.00;;;;;15.56;100.00;98169.09;5037118;28;70416;-79
2024/02/10 09:49:27;;;;;;;;;0.00;0.00;;;;;15.59;100.00;98162.78;5044228;28;45252;-80
2024/02/10 09:51:53;;;;;;;;;0.00;0.00;;;;;15.63;100.00;98158.91;5057761;28;45474;-79
2024/02/10 09:54:18;;;;;;;;;0.00;0.00;;;;;15.59;100.00;98163.59;5056740;28;45306;-79
2024/02/10 09:56:44;;;;;;;;;0.00;0.00;;;;;15.63;100.00;98151.03;5055662;28;68776;-79
2024/02/10 09:59:14;;;;;;;;;0.00;0.00;;;;;15.65;100.00;98157.78;5057822;28;45455;-79
2024/02/10 10:01:39;;;;;;;;;0.00;0.00;;;;;15.68;100.00;98162.75;5056419;28;46250;-79
2024/02/10 10:04:10;;;;;;;;;0.00;0.00;;;;;15.75;100.00;98164.84;5057370;28;45422;-79
2024/02/10 10:06:39;;;;;;;;;0.00;0.00;;;;;15.86;100.00;98160.28;5057161;28;45375;-80
2024/02/10 10:09:05;;;;;;;;;0.00;0.00;;;;;15.92;100.00;98153.66;5057502;28;45287;-80
2024/02/10 10:11:33;;;;;;;;;0.00;0.00;;;;;15.92;100.00;98155.44;5056214;28;48759;-80
2024/02/10 10:13:58;;;;;;;;;1.00;1.00;;;;;15.91;100.00;98165.09;5056202;28;45302;-80
2024/02/10 10:16:24;;;;;;;;;0.00;0.00;;;;;15.92;100.00;98166.75;5056918;28;64307;-80
2024/02/10 10:18:55;;;;;;;;;0.00;0.00;;;;;15.95;100.00;98155.16;5057558;28;45366;-80
2024/02/10 10:21:20;;;;;;;;;0.00;0.00;;;;;16.01;100.00;98165.06;5057266;28;46469;-79
2024/02/10 10:23:49;;;;;;;;;0.00;0.00;;;;;16.05;100.00;98167.28;5056623;28;45300;-80
2024/02/10 10:26:14;;;;;;;;;0.00;0.00;;;;;16.11;100.00;98183.44;5057335;28;45457;-80
2024/02/10 10:28:41;;;;;;;;;0.00;0.00;;;;;16.06;100.00;98174.19;5054063;28;45300;-79
2024/02/10 10:31:07;;;;;;;;;1.00;1.00;;;;;16.09;100.00;98180.94;5036966;28;45376;-80
2024/02/10 10:33:33;;;;;;;;;0.00;0.00;;;;;16.05;100.00;98177.78;5035965;28;45444;-80
2024/02/10 10:36:02;;;;;;;;;0.00;0.00;;;;;16.06;100.00;98173.34;5035510;28;45436;-79
2024/02/10 10:38:29;;;;;;;;;0.00;0.00;;;;;16.06;100.00;98170.72;5035998;28;45311;-80
2024/02/10 10:40:56;;;;;;;;;0.00;0.00;;;;;16.02;100.00;98167.56;5035503;28;45491;-80
2024/02/10 10:43:24;;;;;;;;;0.00;0.00;;;;;16.01;100.00;98167.69;5036627;28;45471;-79
2024/02/10 10:45:51;;;;;;;;;0.00;0.00;;;;;15.97;100.00;98171.56;5036919;28;45453;-80
2024/02/10 10:48:17;;;;;;;;;0.00;0.00;;;;;15.96;100.00;98156.81;5037089;28;45425;-80
2024/02/10 10:50:42;;;;;;;;;0.00;0.00;;;;;15.99;100.00;98156.50;5051127;28;72556;-80
2024/02/10 10:53:11;;;;;;;;;2.50;2.50;;;;;16.04;100.00;98162.16;5038535;28;45356;-80
2024/02/10 10:55:48;;;;;;;;;0.00;0.00;;;;;16.09;100.00;98162.56;5055574;28;45344;-79
2024/02/10 10:58:39;;;;;;;;;0.00;0.00;;;;;16.07;100.00;98156.66;5056870;28;45460;-80
2024/02/10 11:01:05;;;;;;;;;0.00;0.00;;;;;16.11;100.00;98160.63;5048098;28;45571;-80
2024/02/10 11:03:31;;;;;;;;;0.00;0.00;;;;;16.13;100.00;98150.00;5056648;28;45429;-79
2024/02/10 11:05:57;;;;;;;;;0.00;0.00;;;;;16.25;100.00;98154.09;5056346;28;45421;-80
2024/02/10 11:08:26;;;;;;;;;0.00;0.00;;;;;16.32;100.00;98155.16;5055830;28;70423;-80
2024/02/10 11:10:59;;;;;;;;;0.00;0.00;;;;;16.34;100.00;98155.84;5056396;28;46159;-80
2024/02/10 11:13:28;;;;;;;;;0.00;0.00;;;;;16.34;100.00;98155.84;5056742;28;45549;-80
2024/02/10 11:16:28;;;;;;;;;0.00;0.00;;;;;16.36;100.00;98153.94;5056467;28;45217;-79
2024/02/10 11:18:58;;;;;;;;;0.00;0.00;;;;;16.39;100.00;98158.88;5043604;28;45691;-79
2024/02/10 11:21:30;;;;;;;;;0.00;0.00;;;;;16.45;100.00;98154.84;5054849;28;45464;-80
2024/02/10 11:23:56;;;;;;;;;0.00;0.00;;;;;16.48;100.00;98161.63;5054773;28;45484;-80